sensor_id;sensor_type;location;lat;lon;timestamp;P1;durP1;ratioP1;P2;durP2;ratioP2
81672;SDS011;71092;41.158;-8.680;2023-07-31T00:00:27;16.98;;;7.97;;
81672;SDS011;71092;41.158;-8.680;2023-07-31T00:02:53;15.57;;;7.70;;
81672;SDS011;71092;41.158;-8.680;2023-07-31T00:05:19;16.60;;;8.07;;
81672;SDS011;71092;41.158;-8.680;2023-07-31T00:07:45;16.35;;;8.15;;
81672;SDS011;71092;41.158;-8.680;2023-07-31T00:10:11;13.07;;;7.38;;
81672;SDS011;71092;41.158;-8.680;2023-07-31T00:12:38;15.80;;;8.07;;
81672;SDS011;71092;41.158;-8.680;2023-07-31T00:15:05;15.68;;;8.77;;
81672;SDS011;71092;41.158;-8.680;2023-07-31T00:17:32;16.92;;;9.02;;
81672;SDS011;71092;41.158;-8.680;2023-07-31T00:19:58;17.63;;;7.70;;
81672;SDS011;71092;41.158;-8.680;2023-07-31T00:22:24;14.82;;;7.57;;
81672;SDS011;71092;41.158;-8.680;2023-07-31T00:24:49;15.93;;;8.68;;
81672;SDS011;71092;41.158;-8.680;2023-07-31T00:27:15;16.45;;;7.68;;
81672;SDS011;71092;41.158;-8.680;2023-07-31T00:29:42;16.38;;;8.48;;
81672;SDS011;71092;41.158;-8.680;2023-07-31T00:32:08;14.57;;;8.45;;
81672;SDS011;71092;41.158;-8.680;2023-07-31T00:34:36;15.60;;;7.85;;
81672;SDS011;71092;41.158;-8.680;2023-07-31T00:37:02;14.98;;;8.32;;
81672;SDS011;71092;41.158;-8.680;2023-07-31T00:39:29;13.05;;;7.38;;
81672;SDS011;71092;41.158;-8.680;2023-07-31T00:41:55;16.45;;;8.35;;
81672;SDS011;71092;41.158;-8.680;2023-07-31T00:44:21;14.43;;;7.85;;
81672;SDS011;71092;41.158;-8.680;2023-07-31T00:46:48;14.52;;;8.32;;
81672;SDS011;71092;41.158;-8.680;2023-07-31T00:49:14;14.77;;;7.85;;
81672;SDS011;71092;41.158;-8.680;2023-07-31T00:51:40;15.90;;;7.35;;
81672;SDS011;71092;41.158;-8.680;2023-07-31T00:54:06;16.83;;;7.80;;
81672;SDS011;71092;41.158;-8.680;2023-07-31T00:56:32;14.88;;;6.93;;
81672;SDS011;71092;41.158;-8.680;2023-07-31T00:58:59;15.45;;;7.35;;
81672;SDS011;71092;41.158;-8.680;2023-07-31T01:01:25;14.85;;;8.38;;
81672;SDS011;71092;41.158;-8.680;2023-07-31T01:03:51;15.07;;;7.97;;
81672;SDS011;71092;41.158;-8.680;2023-07-31T01:08:57;13.60;;;7.82;;
81672;SDS011;71092;41.158;-8.680;2023-07-31T01:11:29;15.25;;;7.10;;
81672;SDS011;71092;41.158;-8.680;2023-07-31T01:13:56;14.18;;;7.57;;
81672;SDS011;71092;41.158;-8.680;2023-07-31T01:16:22;15.23;;;8.23;;
81672;SDS011;71092;41.158;-8.680;2023-07-31T01:18:48;15.13;;;8.25;;
81672;SDS011;71092;41.158;-8.680;2023-07-31T01:21:37;15.82;;;8.20;;
81672;SDS011;71092;41.158;-8.680;2023-07-31T01:29:12;13.35;;;7.47;;
81672;SDS011;71092;41.158;-8.680;2023-07-31T01:31:43;14.90;;;7.70;;
81672;SDS011;71092;41.158;-8.680;2023-07-31T01:34:11;14.13;;;7.82;;
81672;SDS011;71092;41.158;-8.680;2023-07-31T01:36:38;13.82;;;7.53;;
81672;SDS011;71092;41.158;-8.680;2023-07-31T01:39:04;17.05;;;8.20;;
81672;SDS011;71092;41.158;-8.680;2023-07-31T01:41:30;14.07;;;7.43;;
81672;SDS011;71092;41.158;-8.680;2023-07-31T01:43:55;15.77;;;7.72;;
81672;SDS011;71092;41.158;-8.680;2023-07-31T01:46:22;16.48;;;7.95;;
81672;SDS011;71092;41.158;-8.680;2023-07-31T01:48:49;15.00;;;7.10;;
81672;SDS011;71092;41.158;-8.680;2023-07-31T01:51:14;13.77;;;8.13;;
81672;SDS011;71092;41.158;-8.680;2023-07-31T01:53:40;15.43;;;7.97;;
81672;SDS011;71092;41.158;-8.680;2023-07-31T01:56:07;14.57;;;7.70;;
81672;SDS011;71092;41.158;-8.680;2023-07-31T01:58:33;12.85;;;7.20;;
81672;SDS011;71092;41.158;-8.680;2023-07-31T02:00:59;12.93;;;6.93;;
81672;SDS011;71092;41.158;-8.680;2023-07-31T02:03:25;15.65;;;7.40;;
81672;SDS011;71092;41.158;-8.680;2023-07-31T02:05:53;13.32;;;6.93;;
81672;SDS011;71092;41.158;-8.680;2023-07-31T02:08:19;14.65;;;8.07;;
81672;SDS011;71092;41.158;-8.680;2023-07-31T02:10:45;15.88;;;7.35;;
81672;SDS011;71092;41.158;-8.680;2023-07-31T02:13:11;14.85;;;7.38;;
81672;SDS011;71092;41.158;-8.680;2023-07-31T02:15:37;19.30;;;7.55;;
81672;SDS011;71092;41.158;-8.680;2023-07-31T02:18:03;14.60;;;7.80;;
81672;SDS011;71092;41.158;-8.680;2023-07-31T02:20:28;13.75;;;7.90;;
81672;SDS011;71092;41.158;-8.680;2023-07-31T02:22:54;15.30;;;7.88;;
81672;SDS011;71092;41.158;-8.680;2023-07-31T02:25:20;14.13;;;7.35;;
81672;SDS011;71092;41.158;-8.680;2023-07-31T02:27:46;14.75;;;7.75;;
81672;SDS011;71092;41.158;-8.680;2023-07-31T02:30:13;14.00;;;6.90;;
81672;SDS011;71092;41.158;-8.680;2023-07-31T02:32:39;15.98;;;7.90;;
81672;SDS011;71092;41.158;-8.680;2023-07-31T02:35:05;16.20;;;6.60;;
81672;SDS011;71092;41.158;-8.680;2023-07-31T02:37:31;14.00;;;7.60;;
81672;SDS011;71092;41.158;-8.680;2023-07-31T02:39:59;12.02;;;7.45;;
81672;SDS011;71092;41.158;-8.680;2023-07-31T02:42:27;14.73;;;7.32;;
81672;SDS011;71092;41.158;-8.680;2023-07-31T02:44:53;13.52;;;7.55;;
81672;SDS011;71092;41.158;-8.680;2023-07-31T02:47:21;14.88;;;6.97;;
81672;SDS011;71092;41.158;-8.680;2023-07-31T02:49:48;14.38;;;7.85;;
81672;SDS011;71092;41.158;-8.680;2023-07-31T02:52:16;15.23;;;7.32;;
81672;SDS011;71092;41.158;-8.680;2023-07-31T02:54:42;13.05;;;7.93;;
81672;SDS011;71092;41.158;-8.680;2023-07-31T02:57:08;13.88;;;7.45;;
81672;SDS011;71092;41.158;-8.680;2023-07-31T02:59:33;10.57;;;6.22;;
81672;SDS011;71092;41.158;-8.680;2023-07-31T03:01:59;14.23;;;8.18;;
81672;SDS011;71092;41.158;-8.680;2023-07-31T03:04:25;13.48;;;6.97;;
81672;SDS011;71092;41.158;-8.680;2023-07-31T03:06:51;13.05;;;7.68;;
81672;SDS011;71092;41.158;-8.680;2023-07-31T03:09:17;13.98;;;7.53;;
81672;SDS011;71092;41.158;-8.680;2023-07-31T03:11:43;12.32;;;7.68;;
81672;SDS011;71092;41.158;-8.680;2023-07-31T03:14:09;13.38;;;7.88;;
81672;SDS011;71092;41.158;-8.680;2023-07-31T03:16:35;15.57;;;7.32;;
81672;SDS011;71092;41.158;-8.680;2023-07-31T03:19:00;15.25;;;7.65;;
81672;SDS011;71092;41.158;-8.680;2023-07-31T03:21:26;12.77;;;7.20;;
81672;SDS011;71092;41.158;-8.680;2023-07-31T03:23:52;14.10;;;7.45;;
81672;SDS011;71092;41.158;-8.680;2023-07-31T03:26:18;12.18;;;7.30;;
81672;SDS011;71092;41.158;-8.680;2023-07-31T03:28:44;14.30;;;7.30;;
81672;SDS011;71092;41.158;-8.680;2023-07-31T03:31:09;13.77;;;7.43;;
81672;SDS011;71092;41.158;-8.680;2023-07-31T03:33:36;11.25;;;6.55;;
81672;SDS011;71092;41.158;-8.680;2023-07-31T03:36:02;11.70;;;6.72;;
81672;SDS011;71092;41.158;-8.680;2023-07-31T03:38:29;11.95;;;7.07;;
81672;SDS011;71092;41.158;-8.680;2023-07-31T03:40:55;14.80;;;7.40;;
81672;SDS011;71092;41.158;-8.680;2023-07-31T03:43:21;11.98;;;7.30;;
81672;SDS011;71092;41.158;-8.680;2023-07-31T03:45:46;15.63;;;7.28;;
81672;SDS011;71092;41.158;-8.680;2023-07-31T03:48:13;13.48;;;7.22;;
81672;SDS011;71092;41.158;-8.680;2023-07-31T03:50:41;14.77;;;7.38;;
81672;SDS011;71092;41.158;-8.680;2023-07-31T03:53:06;13.85;;;7.85;;
81672;SDS011;71092;41.158;-8.680;2023-07-31T03:55:32;13.30;;;7.32;;
81672;SDS011;71092;41.158;-8.680;2023-07-31T03:57:58;15.45;;;7.25;;
81672;SDS011;71092;41.158;-8.680;2023-07-31T04:00:26;13.00;;;7.57;;
81672;SDS011;71092;41.158;-8.680;2023-07-31T04:02:52;14.50;;;7.07;;
81672;SDS011;71092;41.158;-8.680;2023-07-31T04:05:18;11.25;;;6.90;;
81672;SDS011;71092;41.158;-8.680;2023-07-31T04:07:44;14.15;;;7.30;;
81672;SDS011;71092;41.158;-8.680;2023-07-31T04:10:10;12.13;;;6.70;;
81672;SDS011;71092;41.158;-8.680;2023-07-31T04:12:35;12.88;;;7.05;;
81672;SDS011;71092;41.158;-8.680;2023-07-31T04:15:01;12.30;;;7.10;;
81672;SDS011;71092;41.158;-8.680;2023-07-31T04:17:29;14.85;;;7.03;;
81672;SDS011;71092;41.158;-8.680;2023-07-31T04:19:55;11.73;;;6.38;;
81672;SDS011;71092;41.158;-8.680;2023-07-31T04:22:21;12.00;;;7.05;;
81672;SDS011;71092;41.158;-8.680;2023-07-31T04:24:46;10.35;;;6.75;;
81672;SDS011;71092;41.158;-8.680;2023-07-31T04:27:12;13.10;;;7.68;;
81672;SDS011;71092;41.158;-8.680;2023-07-31T04:29:38;12.90;;;7.10;;
81672;SDS011;71092;41.158;-8.680;2023-07-31T04:32:05;16.40;;;7.32;;
81672;SDS011;71092;41.158;-8.680;2023-07-31T04:34:31;15.68;;;7.43;;
81672;SDS011;71092;41.158;-8.680;2023-07-31T04:36:57;13.55;;;6.82;;
81672;SDS011;71092;41.158;-8.680;2023-07-31T04:39:22;13.25;;;7.35;;
81672;SDS011;71092;41.158;-8.680;2023-07-31T04:41:48;14.77;;;7.88;;
81672;SDS011;71092;41.158;-8.680;2023-07-31T04:44:14;14.88;;;7.00;;
81672;SDS011;71092;41.158;-8.680;2023-07-31T04:46:40;15.30;;;7.95;;
81672;SDS011;71092;41.158;-8.680;2023-07-31T04:49:06;15.07;;;6.70;;
81672;SDS011;71092;41.158;-8.680;2023-07-31T04:51:33;13.18;;;6.63;;
81672;SDS011;71092;41.158;-8.680;2023-07-31T04:53:58;13.82;;;7.22;;
81672;SDS011;71092;41.158;-8.680;2023-07-31T04:56:24;11.90;;;6.45;;
81672;SDS011;71092;41.158;-8.680;2023-07-31T04:58:50;16.95;;;7.50;;
81672;SDS011;71092;41.158;-8.680;2023-07-31T05:01:16;18.27;;;7.72;;
81672;SDS011;71092;41.158;-8.680;2023-07-31T05:03:41;14.95;;;7.28;;
81672;SDS011;71092;41.158;-8.680;2023-07-31T05:06:07;16.13;;;7.80;;
81672;SDS011;71092;41.158;-8.680;2023-07-31T05:08:33;15.52;;;7.03;;
81672;SDS011;71092;41.158;-8.680;2023-07-31T05:10:59;15.02;;;7.40;;
81672;SDS011;71092;41.158;-8.680;2023-07-31T05:13:25;15.55;;;6.85;;
81672;SDS011;71092;41.158;-8.680;2023-07-31T05:15:50;12.70;;;7.32;;
81672;SDS011;71092;41.158;-8.680;2023-07-31T05:18:17;13.90;;;7.07;;
81672;SDS011;71092;41.158;-8.680;2023-07-31T05:20:43;15.57;;;6.75;;
81672;SDS011;71092;41.158;-8.680;2023-07-31T05:23:08;13.38;;;7.85;;
81672;SDS011;71092;41.158;-8.680;2023-07-31T05:25:34;16.30;;;8.85;;
81672;SDS011;71092;41.158;-8.680;2023-07-31T05:28:00;12.45;;;6.70;;
81672;SDS011;71092;41.158;-8.680;2023-07-31T05:30:26;14.80;;;8.13;;
81672;SDS011;71092;41.158;-8.680;2023-07-31T05:32:52;12.93;;;7.47;;
81672;SDS011;71092;41.158;-8.680;2023-07-31T05:35:18;15.20;;;7.43;;
81672;SDS011;71092;41.158;-8.680;2023-07-31T05:37:43;15.77;;;7.45;;
81672;SDS011;71092;41.158;-8.680;2023-07-31T05:40:09;12.65;;;6.90;;
81672;SDS011;71092;41.158;-8.680;2023-07-31T05:42:35;13.30;;;6.55;;
81672;SDS011;71092;41.158;-8.680;2023-07-31T05:45:04;14.30;;;7.00;;
81672;SDS011;71092;41.158;-8.680;2023-07-31T05:47:31;15.00;;;7.10;;
81672;SDS011;71092;41.158;-8.680;2023-07-31T05:49:57;12.63;;;7.13;;
81672;SDS011;71092;41.158;-8.680;2023-07-31T05:52:23;16.52;;;8.05;;
81672;SDS011;71092;41.158;-8.680;2023-07-31T05:54:49;14.35;;;7.10;;
81672;SDS011;71092;41.158;-8.680;2023-07-31T05:57:15;13.30;;;8.00;;
81672;SDS011;71092;41.158;-8.680;2023-07-31T05:59:41;15.25;;;7.60;;
81672;SDS011;71092;41.158;-8.680;2023-07-31T06:02:07;17.05;;;8.27;;
81672;SDS011;71092;41.158;-8.680;2023-07-31T06:04:33;13.25;;;7.63;;
81672;SDS011;71092;41.158;-8.680;2023-07-31T06:06:59;13.43;;;8.32;;
81672;SDS011;71092;41.158;-8.680;2023-07-31T06:09:25;13.45;;;7.32;;
81672;SDS011;71092;41.158;-8.680;2023-07-31T06:11:51;13.35;;;5.97;;
81672;SDS011;71092;41.158;-8.680;2023-07-31T06:14:17;13.30;;;7.10;;
81672;SDS011;71092;41.158;-8.680;2023-07-31T06:16:44;15.05;;;7.10;;
81672;SDS011;71092;41.158;-8.680;2023-07-31T06:19:10;13.10;;;6.93;;
81672;SDS011;71092;41.158;-8.680;2023-07-31T06:21:36;15.38;;;7.18;;
81672;SDS011;71092;41.158;-8.680;2023-07-31T06:24:05;13.38;;;6.35;;
81672;SDS011;71092;41.158;-8.680;2023-07-31T06:26:31;15.57;;;7.07;;
81672;SDS011;71092;41.158;-8.680;2023-07-31T06:28:57;12.02;;;6.55;;
81672;SDS011;71092;41.158;-8.680;2023-07-31T06:31:23;24.20;;;6.85;;
81672;SDS011;71092;41.158;-8.680;2023-07-31T06:33:49;18.17;;;8.27;;
81672;SDS011;71092;41.158;-8.680;2023-07-31T06:36:16;14.48;;;6.78;;
81672;SDS011;71092;41.158;-8.680;2023-07-31T06:38:42;27.95;;;7.57;;
81672;SDS011;71092;41.158;-8.680;2023-07-31T06:41:08;14.60;;;7.47;;
81672;SDS011;71092;41.158;-8.680;2023-07-31T06:43:34;12.30;;;6.93;;
81672;SDS011;71092;41.158;-8.680;2023-07-31T06:46:06;18.98;;;8.80;;
81672;SDS011;71092;41.158;-8.680;2023-07-31T06:48:33;11.55;;;7.57;;
81672;SDS011;71092;41.158;-8.680;2023-07-31T06:51:00;30.45;;;19.08;;
81672;SDS011;71092;41.158;-8.680;2023-07-31T06:53:26;27.83;;;21.63;;
81672;SDS011;71092;41.158;-8.680;2023-07-31T06:55:53;33.67;;;19.83;;
81672;SDS011;71092;41.158;-8.680;2023-07-31T06:58:20;31.65;;;16.75;;
81672;SDS011;71092;41.158;-8.680;2023-07-31T07:00:46;29.30;;;14.82;;
81672;SDS011;71092;41.158;-8.680;2023-07-31T07:03:11;33.45;;;16.42;;
81672;SDS011;71092;41.158;-8.680;2023-07-31T07:05:40;36.20;;;16.55;;
81672;SDS011;71092;41.158;-8.680;2023-07-31T07:08:06;30.73;;;15.27;;
81672;SDS011;71092;41.158;-8.680;2023-07-31T07:10:32;27.90;;;15.43;;
81672;SDS011;71092;41.158;-8.680;2023-07-31T07:12:58;32.83;;;16.50;;
81672;SDS011;71092;41.158;-8.680;2023-07-31T07:15:23;31.30;;;16.73;;
81672;SDS011;71092;41.158;-8.680;2023-07-31T07:17:49;31.10;;;15.80;;
81672;SDS011;71092;41.158;-8.680;2023-07-31T07:20:15;38.65;;;18.58;;
81672;SDS011;71092;41.158;-8.680;2023-07-31T07:22:41;38.75;;;17.20;;
81672;SDS011;71092;41.158;-8.680;2023-07-31T07:25:10;42.65;;;17.23;;
81672;SDS011;71092;41.158;-8.680;2023-07-31T07:27:36;37.67;;;16.27;;
81672;SDS011;71092;41.158;-8.680;2023-07-31T07:30:02;46.33;;;17.50;;
81672;SDS011;71092;41.158;-8.680;2023-07-31T07:32:29;41.70;;;17.75;;
81672;SDS011;71092;41.158;-8.680;2023-07-31T07:34:55;38.05;;;17.60;;
81672;SDS011;71092;41.158;-8.680;2023-07-31T07:37:21;32.33;;;14.93;;
81672;SDS011;71092;41.158;-8.680;2023-07-31T07:39:47;29.80;;;16.58;;
81672;SDS011;71092;41.158;-8.680;2023-07-31T07:42:13;31.42;;;13.98;;
81672;SDS011;71092;41.158;-8.680;2023-07-31T07:44:39;37.20;;;16.35;;
81672;SDS011;71092;41.158;-8.680;2023-07-31T07:47:04;34.35;;;15.95;;
81672;SDS011;71092;41.158;-8.680;2023-07-31T07:49:34;36.58;;;14.63;;
81672;SDS011;71092;41.158;-8.680;2023-07-31T07:52:00;47.67;;;16.67;;
81672;SDS011;71092;41.158;-8.680;2023-07-31T07:54:27;36.58;;;17.38;;
81672;SDS011;71092;41.158;-8.680;2023-07-31T07:56:53;31.90;;;15.38;;
81672;SDS011;71092;41.158;-8.680;2023-07-31T07:59:19;35.20;;;13.85;;
81672;SDS011;71092;41.158;-8.680;2023-07-31T08:01:45;31.90;;;11.63;;
81672;SDS011;71092;41.158;-8.680;2023-07-31T08:04:11;29.88;;;12.38;;
81672;SDS011;71092;41.158;-8.680;2023-07-31T08:06:37;27.30;;;13.02;;
81672;SDS011;71092;41.158;-8.680;2023-07-31T08:09:03;29.80;;;14.20;;
81672;SDS011;71092;41.158;-8.680;2023-07-31T08:11:34;32.60;;;13.32;;
81672;SDS011;71092;41.158;-8.680;2023-07-31T08:14:00;30.52;;;12.40;;
81672;SDS011;71092;41.158;-8.680;2023-07-31T08:16:26;26.05;;;12.80;;
81672;SDS011;71092;41.158;-8.680;2023-07-31T08:18:51;33.22;;;11.85;;
81672;SDS011;71092;41.158;-8.680;2023-07-31T08:21:18;20.15;;;9.95;;
81672;SDS011;71092;41.158;-8.680;2023-07-31T08:23:43;25.55;;;11.13;;
81672;SDS011;71092;41.158;-8.680;2023-07-31T08:26:16;22.92;;;10.88;;
81672;SDS011;71092;41.158;-8.680;2023-07-31T08:28:42;21.85;;;11.75;;
81672;SDS011;71092;41.158;-8.680;2023-07-31T08:31:08;28.73;;;10.93;;
81672;SDS011;71092;41.158;-8.680;2023-07-31T08:33:34;24.25;;;11.88;;
81672;SDS011;71092;41.158;-8.680;2023-07-31T08:36:00;22.27;;;9.52;;
81672;SDS011;71092;41.158;-8.680;2023-07-31T08:38:27;21.15;;;10.60;;
81672;SDS011;71092;41.158;-8.680;2023-07-31T08:40:56;22.52;;;9.63;;
81672;SDS011;71092;41.158;-8.680;2023-07-31T08:43:22;24.13;;;9.93;;
81672;SDS011;71092;41.158;-8.680;2023-07-31T08:45:51;18.13;;;9.32;;
81672;SDS011;71092;41.158;-8.680;2023-07-31T08:48:17;15.68;;;8.65;;
81672;SDS011;71092;41.158;-8.680;2023-07-31T08:50:44;17.05;;;10.00;;
81672;SDS011;71092;41.158;-8.680;2023-07-31T08:53:11;15.63;;;9.77;;
81672;SDS011;71092;41.158;-8.680;2023-07-31T08:55:37;18.77;;;10.10;;
81672;SDS011;71092;41.158;-8.680;2023-07-31T08:58:04;15.50;;;9.20;;
81672;SDS011;71092;41.158;-8.680;2023-07-31T09:00:33;18.08;;;9.20;;
81672;SDS011;71092;41.158;-8.680;2023-07-31T09:02:59;17.05;;;9.80;;
81672;SDS011;71092;41.158;-8.680;2023-07-31T09:05:28;15.65;;;9.05;;
81672;SDS011;71092;41.158;-8.680;2023-07-31T09:07:55;19.10;;;9.60;;
81672;SDS011;71092;41.158;-8.680;2023-07-31T09:10:22;20.08;;;9.00;;
81672;SDS011;71092;41.158;-8.680;2023-07-31T09:12:49;17.02;;;9.82;;
81672;SDS011;71092;41.158;-8.680;2023-07-31T09:15:16;14.70;;;8.50;;
81672;SDS011;71092;41.158;-8.680;2023-07-31T09:17:42;18.95;;;9.88;;
81672;SDS011;71092;41.158;-8.680;2023-07-31T09:20:21;31.83;;;9.73;;
81672;SDS011;71092;41.158;-8.680;2023-07-31T09:22:47;14.73;;;10.00;;
81672;SDS011;71092;41.158;-8.680;2023-07-31T09:25:14;19.17;;;9.55;;
81672;SDS011;71092;41.158;-8.680;2023-07-31T09:27:48;17.75;;;9.70;;
81672;SDS011;71092;41.158;-8.680;2023-07-31T09:30:16;15.85;;;8.75;;
81672;SDS011;71092;41.158;-8.680;2023-07-31T09:32:43;13.30;;;8.38;;
81672;SDS011;71092;41.158;-8.680;2023-07-31T09:37:41;12.73;;;7.55;;
81672;SDS011;71092;41.158;-8.680;2023-07-31T09:40:07;16.85;;;9.48;;
81672;SDS011;71092;41.158;-8.680;2023-07-31T09:42:33;12.93;;;8.80;;
81672;SDS011;71092;41.158;-8.680;2023-07-31T09:45:08;13.65;;;8.63;;
81672;SDS011;71092;41.158;-8.680;2023-07-31T09:47:35;10.00;;;7.20;;
81672;SDS011;71092;41.158;-8.680;2023-07-31T09:50:01;14.55;;;8.32;;
81672;SDS011;71092;41.158;-8.680;2023-07-31T09:52:26;12.32;;;7.63;;
81672;SDS011;71092;41.158;-8.680;2023-07-31T09:54:53;11.10;;;7.43;;
81672;SDS011;71092;41.158;-8.680;2023-07-31T09:57:20;13.95;;;8.15;;
81672;SDS011;71092;41.158;-8.680;2023-07-31T09:59:47;11.63;;;7.70;;
81672;SDS011;71092;41.158;-8.680;2023-07-31T10:02:15;13.43;;;8.07;;
81672;SDS011;71092;41.158;-8.680;2023-07-31T10:04:46;10.55;;;7.75;;
81672;SDS011;71092;41.158;-8.680;2023-07-31T10:07:16;14.30;;;7.45;;
81672;SDS011;71092;41.158;-8.680;2023-07-31T10:09:44;14.23;;;7.65;;
81672;SDS011;71092;41.158;-8.680;2023-07-31T10:12:11;13.23;;;8.70;;
81672;SDS011;71092;41.158;-8.680;2023-07-31T10:14:37;14.70;;;8.60;;
81672;SDS011;71092;41.158;-8.680;2023-07-31T10:17:04;12.52;;;8.82;;
81672;SDS011;71092;41.158;-8.680;2023-07-31T10:19:31;18.13;;;8.40;;
81672;SDS011;71092;41.158;-8.680;2023-07-31T10:21:57;13.50;;;7.53;;
81672;SDS011;71092;41.158;-8.680;2023-07-31T10:24:24;19.58;;;8.98;;
81672;SDS011;71092;41.158;-8.680;2023-07-31T10:26:50;13.43;;;8.93;;
81672;SDS011;71092;41.158;-8.680;2023-07-31T10:29:17;11.75;;;7.90;;
81672;SDS011;71092;41.158;-8.680;2023-07-31T10:31:44;14.38;;;7.45;;
81672;SDS011;71092;41.158;-8.680;2023-07-31T10:34:10;16.85;;;8.52;;
81672;SDS011;71092;41.158;-8.680;2023-07-31T10:36:37;13.70;;;8.75;;
81672;SDS011;71092;41.158;-8.680;2023-07-31T10:39:03;14.38;;;7.30;;
81672;SDS011;71092;41.158;-8.680;2023-07-31T10:41:30;16.33;;;8.25;;
81672;SDS011;71092;41.158;-8.680;2023-07-31T10:43:59;12.93;;;8.50;;
81672;SDS011;71092;41.158;-8.680;2023-07-31T10:46:27;15.45;;;8.55;;
81672;SDS011;71092;41.158;-8.680;2023-07-31T10:48:57;11.68;;;8.45;;
81672;SDS011;71092;41.158;-8.680;2023-07-31T10:51:34;16.92;;;7.88;;
81672;SDS011;71092;41.158;-8.680;2023-07-31T10:54:10;13.88;;;6.15;;
81672;SDS011;71092;41.158;-8.680;2023-07-31T10:56:40;13.32;;;8.65;;
81672;SDS011;71092;41.158;-8.680;2023-07-31T10:59:11;11.73;;;8.70;;
81672;SDS011;71092;41.158;-8.680;2023-07-31T11:01:51;12.50;;;7.97;;
81672;SDS011;71092;41.158;-8.680;2023-07-31T11:04:24;11.45;;;7.00;;
81672;SDS011;71092;41.158;-8.680;2023-07-31T11:06:58;11.82;;;7.60;;
81672;SDS011;71092;41.158;-8.680;2023-07-31T11:09:31;11.57;;;7.93;;
81672;SDS011;71092;41.158;-8.680;2023-07-31T11:11:59;10.48;;;7.30;;
81672;SDS011;71092;41.158;-8.680;2023-07-31T11:14:25;11.90;;;8.00;;
81672;SDS011;71092;41.158;-8.680;2023-07-31T11:16:51;12.05;;;7.63;;
81672;SDS011;71092;41.158;-8.680;2023-07-31T11:19:24;14.80;;;7.00;;
81672;SDS011;71092;41.158;-8.680;2023-07-31T11:21:51;11.77;;;6.63;;
81672;SDS011;71092;41.158;-8.680;2023-07-31T11:24:18;14.63;;;7.20;;
81672;SDS011;71092;41.158;-8.680;2023-07-31T11:26:48;10.45;;;7.15;;
81672;SDS011;71092;41.158;-8.680;2023-07-31T11:29:16;9.95;;;7.20;;
81672;SDS011;71092;41.158;-8.680;2023-07-31T11:31:42;11.35;;;7.88;;
81672;SDS011;71092;41.158;-8.680;2023-07-31T11:34:09;11.30;;;6.05;;
81672;SDS011;71092;41.158;-8.680;2023-07-31T11:36:35;11.95;;;7.45;;
81672;SDS011;71092;41.158;-8.680;2023-07-31T11:39:09;11.88;;;7.20;;
81672;SDS011;71092;41.158;-8.680;2023-07-31T11:41:36;13.77;;;8.38;;
81672;SDS011;71092;41.158;-8.680;2023-07-31T11:44:06;13.20;;;8.75;;
81672;SDS011;71092;41.158;-8.680;2023-07-31T11:46:32;11.90;;;8.20;;
81672;SDS011;71092;41.158;-8.680;2023-07-31T11:49:01;12.88;;;9.15;;
81672;SDS011;71092;41.158;-8.680;2023-07-31T11:51:27;19.05;;;9.00;;
81672;SDS011;71092;41.158;-8.680;2023-07-31T11:53:56;13.00;;;8.88;;
81672;SDS011;71092;41.158;-8.680;2023-07-31T11:56:23;12.93;;;8.68;;
81672;SDS011;71092;41.158;-8.680;2023-07-31T11:58:51;11.45;;;8.73;;
81672;SDS011;71092;41.158;-8.680;2023-07-31T12:01:19;12.82;;;7.25;;
81672;SDS011;71092;41.158;-8.680;2023-07-31T12:03:47;10.45;;;7.68;;
81672;SDS011;71092;41.158;-8.680;2023-07-31T12:06:13;10.95;;;8.55;;
81672;SDS011;71092;41.158;-8.680;2023-07-31T12:08:39;13.00;;;7.93;;
81672;SDS011;71092;41.158;-8.680;2023-07-31T12:11:05;12.27;;;8.68;;
81672;SDS011;71092;41.158;-8.680;2023-07-31T12:13:35;11.93;;;7.93;;
81672;SDS011;71092;41.158;-8.680;2023-07-31T12:16:01;12.57;;;8.02;;
81672;SDS011;71092;41.158;-8.680;2023-07-31T12:18:29;12.05;;;7.88;;
81672;SDS011;71092;41.158;-8.680;2023-07-31T12:20:57;11.98;;;7.35;;
81672;SDS011;71092;41.158;-8.680;2023-07-31T12:23:30;11.15;;;8.07;;
81672;SDS011;71092;41.158;-8.680;2023-07-31T12:26:04;10.25;;;6.35;;
81672;SDS011;71092;41.158;-8.680;2023-07-31T12:28:37;13.05;;;7.57;;
81672;SDS011;71092;41.158;-8.680;2023-07-31T12:31:03;9.75;;;7.15;;
81672;SDS011;71092;41.158;-8.680;2023-07-31T12:33:34;13.00;;;7.22;;
81672;SDS011;71092;41.158;-8.680;2023-07-31T12:36:01;9.57;;;6.57;;
81672;SDS011;71092;41.158;-8.680;2023-07-31T12:38:28;10.68;;;6.95;;
81672;SDS011;71092;41.158;-8.680;2023-07-31T12:40:54;12.15;;;6.75;;
81672;SDS011;71092;41.158;-8.680;2023-07-31T12:43:20;11.57;;;7.20;;
81672;SDS011;71092;41.158;-8.680;2023-07-31T12:45:46;11.82;;;6.65;;
81672;SDS011;71092;41.158;-8.680;2023-07-31T12:48:13;10.65;;;6.70;;
81672;SDS011;71092;41.158;-8.680;2023-07-31T12:50:39;20.55;;;7.13;;
81672;SDS011;71092;41.158;-8.680;2023-07-31T12:53:05;12.05;;;6.57;;
81672;SDS011;71092;41.158;-8.680;2023-07-31T12:55:31;13.60;;;5.57;;
81672;SDS011;71092;41.158;-8.680;2023-07-31T12:58:02;9.40;;;6.38;;
81672;SDS011;71092;41.158;-8.680;2023-07-31T13:00:29;11.20;;;7.25;;
81672;SDS011;71092;41.158;-8.680;2023-07-31T13:02:56;12.93;;;6.68;;
81672;SDS011;71092;41.158;-8.680;2023-07-31T13:05:22;10.05;;;5.82;;
81672;SDS011;71092;41.158;-8.680;2023-07-31T13:07:48;6.55;;;3.47;;
81672;SDS011;71092;41.158;-8.680;2023-07-31T13:10:14;10.50;;;6.85;;
81672;SDS011;71092;41.158;-8.680;2023-07-31T13:12:40;9.65;;;5.47;;
81672;SDS011;71092;41.158;-8.680;2023-07-31T13:15:06;11.07;;;6.32;;
81672;SDS011;71092;41.158;-8.680;2023-07-31T13:17:32;10.55;;;6.13;;
81672;SDS011;71092;41.158;-8.680;2023-07-31T13:19:59;9.80;;;6.63;;
81672;SDS011;71092;41.158;-8.680;2023-07-31T13:22:26;10.95;;;6.63;;
81672;SDS011;71092;41.158;-8.680;2023-07-31T13:24:52;10.18;;;5.97;;
81672;SDS011;71092;41.158;-8.680;2023-07-31T13:27:18;10.38;;;6.30;;
81672;SDS011;71092;41.158;-8.680;2023-07-31T13:29:46;10.68;;;5.57;;
81672;SDS011;71092;41.158;-8.680;2023-07-31T13:32:12;6.68;;;4.03;;
81672;SDS011;71092;41.158;-8.680;2023-07-31T13:34:37;8.07;;;4.07;;
81672;SDS011;71092;41.158;-8.680;2023-07-31T13:37:04;10.65;;;4.82;;
81672;SDS011;71092;41.158;-8.680;2023-07-31T13:39:31;9.30;;;4.18;;
81672;SDS011;71092;41.158;-8.680;2023-07-31T13:41:58;10.15;;;4.80;;
81672;SDS011;71092;41.158;-8.680;2023-07-31T13:44:24;8.55;;;4.55;;
81672;SDS011;71092;41.158;-8.680;2023-07-31T13:46:50;12.80;;;5.32;;
81672;SDS011;71092;41.158;-8.680;2023-07-31T13:49:16;15.85;;;5.10;;
81672;SDS011;71092;41.158;-8.680;2023-07-31T13:51:42;10.48;;;4.85;;
81672;SDS011;71092;41.158;-8.680;2023-07-31T13:54:08;10.77;;;5.32;;
81672;SDS011;71092;41.158;-8.680;2023-07-31T13:56:37;9.30;;;5.00;;
81672;SDS011;71092;41.158;-8.680;2023-07-31T13:59:03;11.48;;;4.75;;
81672;SDS011;71092;41.158;-8.680;2023-07-31T14:01:29;8.45;;;4.00;;
81672;SDS011;71092;41.158;-8.680;2023-07-31T14:03:56;9.73;;;3.78;;
81672;SDS011;71092;41.158;-8.680;2023-07-31T14:06:22;12.23;;;4.22;;
81672;SDS011;71092;41.158;-8.680;2023-07-31T14:08:48;10.88;;;4.38;;
81672;SDS011;71092;41.158;-8.680;2023-07-31T14:11:13;7.65;;;3.72;;
81672;SDS011;71092;41.158;-8.680;2023-07-31T14:13:39;11.25;;;4.05;;
81672;SDS011;71092;41.158;-8.680;2023-07-31T14:16:05;9.05;;;4.65;;
81672;SDS011;71092;41.158;-8.680;2023-07-31T14:18:31;11.35;;;5.40;;
81672;SDS011;71092;41.158;-8.680;2023-07-31T14:20:57;8.68;;;4.53;;
81672;SDS011;71092;41.158;-8.680;2023-07-31T14:23:23;10.57;;;4.60;;
81672;SDS011;71092;41.158;-8.680;2023-07-31T14:25:49;10.93;;;4.90;;
81672;SDS011;71092;41.158;-8.680;2023-07-31T14:28:15;12.65;;;4.50;;